Portada
METAR-TAF:

METAR-TAF

Aeroports :

Norwich, Anglaterra

latitud: 52-38N, longitud: 001-18E, altitud: 14 m

Observació

L'informe es va fer fa 30 minuts, a les 22:20 UTC
Vent 12 kt del Oest
Temperatura 8°C
Humitat 87%
Pressió 1004 hPa
Visibilitat 10 km o més

METAR: EGSH 062220Z AUTO 26012KT 9999 NCD 08/06 Q1004

Hora: 22:50 (22:50 UTC)

Pronòstic

L'informe es va fer fa 2 hores i 56 minuts, a les 19:54 UTC
Pronòstic vàlid del 06 a les 21 UTC al 06 a les 24 UTC
Vent 10 kt del Oest/Sud-Oest
Visibilitat 10 km o més
Núvols disperses a una alçada de 3000 ft
Temporalment
l' 06 a les 21 UTC al 06 a les 24 UTC
Vent 15 kt del Oest amb ràfegues de 25 kt

TAF: EGSH 061954Z 0621/0624 25010KT 9999 SCT030 TEMPO 0621/0624 26015G25KT

Observacions i pronòstics meteorològics de més de 4000 aeroports (METAR i TAF).

Les estacions disponibles són els punts grocs i vermells al mapa.

Posi el ratolí al punt desitjat per veure el nom de l'estació.

Feu clic per veure les observacions i els pronòstics meteorològics.

Per canviar el mapa: feu clic els botons verds amb una creu de color negre per apropar; al botó verd amb un guió per allunyar la imatge; o en les fletxes verdes per a mapes adjacents.


METAR-TAF: